Time;durP1;ratioP1;P1;durP2;ratioP2;P2;SDS_P1;SDS_P2;PMS_P1;PMS_P2;Temp;Humidity;BMP_temperature;BMP_pressure;BME280_temperature;BME280_humidity;BME280_pressure;Samples;Min_cycle;Max_cycle;Signal;HPM_P1;HPM_P2
2022/08/28 00:03:23;;;;;;;8.70;3.78;;;;;;;14.26;70.26;100650.22;10167472;28;20063;-79
2022/08/28 00:08:26;;;;;;;12.95;4.22;;;;;;;14.10;70.86;100653.50;10167092;28;20055;-78
2022/08/28 00:13:31;;;;;;;10.65;4.00;;;;;;;14.01;70.99;100667.81;10170344;28;20082;-80
2022/08/28 00:18:34;;;;;;;12.55;4.57;;;;;;;14.22;70.69;100660.47;10166987;28;20059;-81
2022/08/28 00:23:37;;;;;;;11.40;4.38;;;;;;;14.25;70.16;100652.06;10168324;28;20087;-80
2022/08/28 00:28:46;;;;;;;16.48;4.85;;;;;;;14.27;69.92;100654.66;10196328;28;20050;-77
2022/08/28 00:33:49;;;;;;;16.35;4.72;;;;;;;14.21;70.05;100658.78;10175945;28;20063;-79
2022/08/28 00:38:52;;;;;;;10.48;4.22;;;;;;;14.09;70.42;100654.47;10166317;28;20611;-81
2022/08/28 00:44:10;;;;;;;12.55;4.45;;;;;;;14.10;70.38;100646.25;10167244;28;20426;-78
2022/08/28 00:49:16;;;;;;;11.70;4.68;;;;;;;14.06;70.29;100654.75;10161231;28;20107;-80
2022/08/28 00:54:20;;;;;;;11.85;4.53;;;;;;;13.96;70.99;100651.19;10165483;28;20048;-79
2022/08/28 00:59:26;;;;;;;14.55;4.82;;;;;;;14.03;70.50;100644.25;10156127;28;20076;-77
2022/08/28 01:04:31;;;;;;;13.20;4.95;;;;;;;13.83;71.43;100640.66;10143629;28;20116;-80
2022/08/28 01:09:37;;;;;;;20.05;5.28;;;;;;;13.86;71.26;100643.94;10164413;28;20048;-77
2022/08/28 01:14:45;;;;;;;17.23;5.10;;;;;;;13.73;71.70;100654.13;10166640;28;20047;-80
2022/08/28 01:19:55;;;;;;;13.48;5.03;;;;;;;13.69;71.97;100661.66;10148881;28;20048;-80
2022/08/28 01:25:02;;;;;;;16.58;5.18;;;;;;;13.44;72.93;100652.22;10167730;28;20059;-80
2022/08/28 01:30:05;;;;;;;15.43;5.20;;;;;;;13.61;72.41;100649.84;10152127;28;20088;-80
2022/08/28 01:35:13;;;;;;;13.50;5.38;;;;;;;13.84;71.80;100653.16;10159967;28;20131;-79
2022/08/28 01:40:23;;;;;;;12.23;5.28;;;;;;;13.79;71.37;100653.56;10154426;28;20056;-79
2022/08/28 01:50:47;;;;;;;15.25;5.50;;;;;;;14.00;70.95;100663.44;10178991;28;20111;-79
2022/08/28 01:55:52;;;;;;;15.98;5.50;;;;;;;14.10;70.26;100669.72;10161938;28;20087;-81
2022/08/28 02:00:56;;;;;;;17.75;6.20;;;;;;;14.27;69.97;100674.41;10150832;28;20111;-79
2022/08/28 02:05:59;;;;;;;14.02;4.85;;;;;;;14.13;70.09;100664.88;10170743;28;20044;-79
2022/08/28 02:11:05;;;;;;;12.13;5.55;;;;;;;13.94;71.08;100665.69;10161509;28;20055;-80
2022/08/28 02:16:09;;;;;;;11.68;5.43;;;;;;;13.79;71.24;100677.88;10171126;28;20095;-80
2022/08/28 02:21:13;;;;;;;20.02;6.20;;;;;;;13.70;71.64;100678.72;10150198;28;20052;-81
2022/08/28 02:26:17;;;;;;;15.52;5.18;;;;;;;13.56;72.63;100684.50;10165368;28;20662;-79
2022/08/28 02:31:20;;;;;;;11.07;4.90;;;;;;;13.58;72.10;100686.06;10145920;28;1119183;-78
2022/08/28 02:36:24;;;;;;;15.00;5.68;;;;;;;13.28;72.85;100690.44;10177551;28;20080;-80
2022/08/28 02:41:28;;;;;;;12.00;5.60;;;;;;;13.44;73.07;100681.91;10167454;28;20052;-81
2022/08/28 02:46:32;;;;;;;16.10;5.57;;;;;;;13.66;72.46;100685.38;10163810;28;20077;-81
2022/08/28 02:51:35;;;;;;;12.25;4.95;;;;;;;13.51;72.02;100687.59;10174080;28;20083;-81
2022/08/28 02:56:39;;;;;;;17.30;5.70;;;;;;;13.51;72.60;100692.16;10187272;28;20064;-78
2022/08/28 03:01:43;;;;;;;12.23;4.95;;;;;;;13.72;72.15;100687.53;10185262;28;20055;-81
2022/08/28 03:06:46;;;;;;;18.90;6.10;;;;;;;13.89;71.34;100694.13;10152867;28;20044;-81
2022/08/28 03:11:52;;;;;;;11.57;5.75;;;;;;;14.01;70.76;100700.25;10170552;28;20047;-80
2022/08/28 03:16:55;;;;;;;21.88;5.82;;;;;;;13.95;70.30;100693.56;10154579;28;20052;-80
2022/08/28 03:21:59;;;;;;;17.48;5.53;;;;;;;13.57;71.99;100697.00;10160849;28;20059;-79
2022/08/28 03:27:04;;;;;;;16.38;5.32;;;;;;;13.51;72.34;100708.34;10166292;28;20058;-80
2022/08/28 03:32:06;;;;;;;15.07;5.18;;;;;;;13.23;73.93;100697.25;10164271;28;20623;-81
2022/08/28 03:37:09;;;;;;;19.00;5.75;;;;;;;13.47;73.44;100692.41;10161263;28;20108;-79
2022/08/28 03:42:14;;;;;;;17.50;5.72;;;;;;;12.90;75.13;100696.47;10160885;28;20083;-80
2022/08/28 03:47:17;;;;;;;15.45;5.95;;;;;;;13.36;73.37;100694.34;10141277;28;20104;-80
2022/08/28 03:52:23;;;;;;;11.55;4.70;;;;;;;13.48;72.40;100698.66;10144535;28;20407;-80
2022/08/28 03:57:28;;;;;;;24.58;6.80;;;;;;;13.46;72.47;100696.09;10138860;28;21250;-80
2022/08/28 04:02:31;;;;;;;14.07;4.90;;;;;;;13.60;72.34;100696.72;10141973;28;20083;-78
2022/08/28 04:07:34;;;;;;;11.43;4.60;;;;;;;13.69;71.81;100688.66;10166452;28;20098;-80
2022/08/28 04:12:39;;;;;;;16.05;5.38;;;;;;;13.66;71.51;100690.78;10157217;28;20568;-80
2022/08/28 04:17:42;;;;;;;15.63;4.88;;;;;;;13.65;71.54;100698.00;10155672;28;20062;-79
2022/08/28 04:22:44;;;;;;;15.15;4.95;;;;;;;13.02;73.38;100706.19;10175627;28;20048;-80
2022/08/28 04:27:50;;;;;;;16.13;4.90;;;;;;;13.07;73.18;100716.59;10166154;28;20604;-80
2022/08/28 04:32:53;;;;;;;9.60;4.43;;;;;;;13.27;73.02;100718.44;10140046;28;20116;-80
2022/08/28 04:37:56;;;;;;;14.25;4.25;;;;;;;13.49;72.42;100717.44;10173530;28;20048;-78
2022/08/28 04:43:02;;;;;;;11.27;4.60;;;;;;;13.68;71.59;100713.94;10174910;28;20061;-79
2022/08/28 04:48:05;;;;;;;17.42;4.38;;;;;;;13.63;71.44;100718.91;10170676;28;20585;-80
2022/08/28 04:53:17;;;;;;;13.90;4.80;;;;;;;13.73;71.02;100723.47;10150180;28;20738;-80
2022/08/28 04:58:22;;;;;;;11.75;4.53;;;;;;;13.87;71.03;100732.03;10167256;28;20060;-80
2022/08/28 05:03:26;;;;;;;15.02;3.92;;;;;;;13.93;70.37;100734.22;10167893;28;20050;-80
2022/08/28 05:08:28;;;;;;;16.95;4.10;;;;;;;13.56;71.29;100736.63;10161032;28;20055;-81
2022/08/28 05:13:33;;;;;;;13.13;4.78;;;;;;;13.56;72.19;100744.72;10185638;28;20059;-79
2022/08/28 05:18:36;;;;;;;8.52;3.83;;;;;;;14.02;71.33;100737.09;10182386;28;20698;-80
2022/08/28 05:23:39;;;;;;;12.27;4.07;;;;;;;14.29;70.38;100752.59;10171013;28;20055;-80
2022/08/28 05:28:43;;;;;;;10.05;3.65;;;;;;;14.03;70.13;100745.03;10172528;28;20059;-80
2022/08/28 05:33:48;;;;;;;12.77;3.65;;;;;;;13.57;71.38;100745.56;10176425;28;20052;-79
2022/08/28 05:38:51;;;;;;;9.90;3.30;;;;;;;13.67;71.29;100744.63;10175696;28;20080;-80
2022/08/28 05:44:00;;;;;;;12.32;3.80;;;;;;;13.78;71.23;100745.53;10174889;28;20420;-78
2022/08/28 05:49:03;;;;;;;15.85;3.72;;;;;;;14.06;70.95;100752.00;10171735;28;20051;-79
2022/08/28 05:54:13;;;;;;;8.65;3.53;;;;;;;14.40;69.35;100754.38;10173100;28;20055;-80
2022/08/28 05:59:18;;;;;;;12.23;3.05;;;;;;;14.58;68.07;100752.69;10173535;28;20051;-78
2022/08/28 06:04:25;;;;;;;16.83;3.38;;;;;;;14.58;68.25;100755.38;10177473;28;20130;-79
2022/08/28 06:09:29;;;;;;;16.75;4.20;;;;;;;14.57;68.40;100761.81;10172566;28;20051;-79
2022/08/28 06:14:33;;;;;;;11.75;2.97;;;;;;;14.69;68.39;100763.38;10174743;28;20138;-80
2022/08/28 06:19:37;;;;;;;15.38;3.25;;;;;;;15.20;67.37;100762.19;10177080;28;20075;-78
2022/08/28 06:24:43;;;;;;;18.25;3.75;;;;;;;15.29;66.75;100765.03;10168218;28;20056;-76
2022/08/28 06:29:48;;;;;;;16.77;3.30;;;;;;;15.65;65.38;100771.50;10171157;28;20075;-79
2022/08/28 06:34:50;;;;;;;11.82;3.85;;;;;;;15.53;65.59;100772.69;10158394;28;20079;-79
2022/08/28 06:51:12;;;;;;;8.82;3.00;;;;;;;16.22;62.20;100787.63;10293618;23;20525;-77
2022/08/28 06:56:18;;;;;;;11.55;2.58;;;;;;;16.57;62.54;100795.00;10051631;29;20116;-78
2022/08/28 07:01:31;;;;;;;8.52;2.75;;;;;;;16.95;60.50;100792.97;10050786;29;20060;-77
2022/08/28 07:06:37;;;;;;;11.20;3.08;;;;;;;17.23;60.26;100791.91;10048456;29;20133;-77
2022/08/28 07:11:43;;;;;;;6.70;2.13;;;;;;;17.68;59.14;100787.28;10039267;29;20464;-78
2022/08/28 07:16:46;;;;;;;10.50;3.47;;;;;;;17.68;56.88;100782.69;10039781;29;20057;-77
2022/08/28 07:21:50;;;;;;;8.27;2.40;;;;;;;17.97;56.66;100794.22;10047009;29;20112;-76
2022/08/28 07:26:53;;;;;;;6.50;2.60;;;;;;;18.23;56.68;100799.63;10049021;29;20057;-76
2022/08/28 07:31:57;;;;;;;9.95;2.25;;;;;;;18.15;56.86;100795.00;10043772;29;20053;-77
2022/08/28 07:37:03;;;;;;;9.55;2.97;;;;;;;18.51;54.53;100802.94;10052981;29;20097;-77
2022/08/28 07:42:06;;;;;;;11.30;2.20;;;;;;;18.52;55.33;100791.03;10018120;29;20049;-77
2022/08/28 07:47:10;;;;;;;13.07;2.65;;;;;;;18.82;54.04;100796.91;10060906;29;20176;-78
2022/08/28 07:52:14;;;;;;;11.60;3.28;;;;;;;18.53;54.07;100796.31;10085679;29;20092;-78
2022/08/28 07:57:19;;;;;;;9.35;2.40;;;;;;;18.78;54.17;100807.25;10091048;29;20175;-78
2022/08/28 08:02:24;;;;;;;7.90;2.28;;;;;;;19.66;50.79;100803.84;10078697;29;20782;-76
2022/08/28 08:07:28;;;;;;;11.13;4.07;;;;;;;20.01;48.99;100797.09;10053980;29;20594;-78
2022/08/28 08:12:33;;;;;;;8.80;2.60;;;;;;;19.72;49.77;100807.75;10044886;29;20041;-80
2022/08/28 08:17:36;;;;;;;7.72;2.80;;;;;;;20.18;49.43;100807.94;10099614;29;20052;-80
2022/08/28 08:22:40;;;;;;;10.73;2.50;;;;;;;19.72;50.35;100813.22;10098245;29;20052;-80
2022/08/28 08:27:43;;;;;;;10.63;3.10;;;;;;;19.29;51.39;100818.03;10090621;29;20049;-80
2022/08/28 08:32:46;;;;;;;7.85;2.42;;;;;;;20.60;48.48;100820.38;10086008;29;20044;-79
2022/08/28 08:37:50;;;;;;;9.52;2.45;;;;;;;22.10;45.45;100808.66;10099569;29;20117;-79
2022/08/28 08:42:55;;;;;;;13.90;2.85;;;;;;;22.51;44.82;100819.06;10082873;29;20063;-79
2022/08/28 08:48:00;;;;;;;5.78;2.33;;;;;;;21.53;44.63;100817.47;10087398;29;20506;-79
2022/08/28 08:53:23;;;;;;;6.05;2.10;;;;;;;21.09;46.75;100822.78;10108425;29;20060;-79
2022/08/28 08:58:31;;;;;;;9.93;2.47;;;;;;;21.20;45.20;100825.97;10094721;29;20052;-77
2022/08/28 09:03:49;;;;;;;9.82;2.38;;;;;;;20.83;45.34;100820.41;10111601;29;21067;-79
2022/08/28 09:08:59;;;;;;;16.95;2.40;;;;;;;19.89;45.82;100825.78;10110835;29;20063;-78
2022/08/28 09:14:09;;;;;;;9.68;2.05;;;;;;;20.55;45.97;100827.25;10107315;29;20060;-79
2022/08/28 09:19:17;;;;;;;6.50;2.20;;;;;;;21.91;43.87;100813.84;10092048;29;20369;-79
2022/08/28 09:24:25;;;;;;;7.53;2.47;;;;;;;24.10;39.73;100818.78;10108197;29;21294;-79
2022/08/28 09:29:31;;;;;;;9.00;2.65;;;;;;;22.30;42.48;100821.75;10113314;29;20056;-79
2022/08/28 09:34:34;;;;;;;8.15;2.20;;;;;;;20.07;46.75;100828.28;10102297;29;20299;-78
2022/08/28 09:39:42;;;;;;;8.88;2.42;;;;;;;20.73;44.59;100828.81;10084442;29;20060;-78
2022/08/28 09:44:55;;;;;;;6.93;2.30;;;;;;;22.46;42.09;100821.56;10091663;29;20057;-78
2022/08/28 09:50:16;;;;;;;8.52;2.17;;;;;;;23.65;39.79;100821.88;10102123;29;20064;-79
2022/08/28 09:55:27;;;;;;;7.32;2.08;;;;;;;23.20;39.84;100824.06;10100822;29;20069;-79
2022/08/28 10:00:33;;;;;;;9.45;2.63;;;;;;;22.01;42.90;100820.72;10106057;29;20420;-78
2022/08/28 10:05:43;;;;;;;8.52;2.67;;;;;;;23.07;41.54;100823.06;10090043;29;20053;-78
2022/08/28 10:10:52;;;;;;;4.65;2.38;;;;;;;23.76;39.50;100820.50;10101688;29;20057;-78
2022/08/28 10:16:27;;;;;;;9.00;2.28;;;;;;;23.47;39.10;100813.28;10092848;29;20057;-78
2022/08/28 10:21:36;;;;;;;4.72;2.25;;;;;;;23.00;39.12;100822.97;10096814;29;20048;-78
2022/08/28 10:26:51;;;;;;;7.88;2.70;;;;;;;23.52;39.11;100816.28;10107488;29;20063;-78
2022/08/28 10:32:18;;;;;;;9.65;2.25;;;;;;;23.62;38.26;100815.97;10093375;29;20066;-77
2022/08/28 10:37:41;;;;;;;5.57;2.22;;;;;;;22.94;38.85;100831.97;10096184;29;20057;-77
2022/08/28 10:42:50;;;;;;;5.47;2.28;;;;;;;23.56;37.60;100819.47;10064507;29;20141;-77
2022/08/28 10:47:58;;;;;;;7.70;2.67;;;;;;;25.33;36.58;100802.25;10087516;29;20203;-76
2022/08/28 10:53:06;;;;;;;6.18;2.30;;;;;;;25.53;36.39;100805.00;10066336;29;20084;-77
2022/08/28 10:58:11;;;;;;;6.80;2.60;;;;;;;25.01;36.86;100817.63;10063754;29;20121;-77
2022/08/28 11:03:29;;;;;;;5.50;2.25;;;;;;;23.75;37.72;100807.81;10083261;29;20213;-77
2022/08/28 11:08:39;;;;;;;4.70;1.80;;;;;;;25.28;36.32;100802.03;10067926;29;20100;-77
2022/08/28 11:13:55;;;;;;;5.80;2.08;;;;;;;25.67;34.64;100808.59;10062936;29;20075;-77
2022/08/28 11:19:36;;;;;;;5.90;2.10;;;;;;;24.83;36.74;100823.75;10079237;29;20135;-77
2022/08/28 11:24:49;;;;;;;7.57;2.60;;;;;;;26.14;34.49;100812.94;10073147;29;20479;-77
2022/08/28 11:30:28;;;;;;;8.38;2.33;;;;;;;26.00;34.65;100816.78;10072726;29;20057;-77
2022/08/28 11:35:45;;;;;;;6.65;2.28;;;;;;;24.83;35.72;100813.59;10074135;29;20053;-76
2022/08/28 11:40:55;;;;;;;9.82;3.00;;;;;;;24.58;36.81;100809.75;10077615;29;20053;-76
2022/08/28 11:46:27;;;;;;;6.70;3.05;;;;;;;24.92;35.42;100812.34;10071070;29;20664;-76
2022/08/28 11:51:54;;;;;;;4.43;2.40;;;;;;;25.38;33.70;100807.97;10079835;29;20116;-76
2022/08/28 11:57:07;;;;;;;12.27;2.63;;;;;;;26.72;32.80;100801.88;10067433;29;20137;-76
2022/08/28 12:02:47;;;;;;;5.95;2.60;;;;;;;26.90;32.45;100798.38;10065478;29;20085;-76
2022/08/28 12:07:52;;;;;;;7.28;3.80;;;;;;;27.08;32.26;100797.63;10067806;29;20060;-76
2022/08/28 12:12:56;;;;;;;14.68;5.63;;;;;;;25.88;34.38;100791.84;10084338;29;20625;-76
2022/08/28 12:18:02;;;;;;;5.72;2.35;;;;;;;25.79;34.82;100799.47;10060576;29;20084;-76
2022/08/28 12:23:31;;;;;;;6.35;2.25;;;;;;;25.39;34.99;100796.75;10084460;29;20138;-77
2022/08/28 12:28:43;;;;;;;8.95;2.22;;;;;;;27.28;31.59;100796.63;10062602;29;20060;-77
2022/08/28 12:33:55;;;;;;;8.30;2.50;;;;;;;28.75;29.90;100793.94;10082691;29;20064;-77
2022/08/28 12:38:58;;;;;;;5.75;2.17;;;;;;;29.06;28.88;100783.66;10062894;29;20292;-77
2022/08/28 12:44:01;;;;;;;6.88;1.90;;;;;;;26.80;31.53;100777.88;10080330;29;20059;-76
2022/08/28 12:49:27;;;;;;;4.88;1.90;;;;;;;31.62;26.77;100767.53;10069136;29;20061;-77
2022/08/28 12:54:30;;;;;;;5.03;2.33;;;;;;;31.59;26.66;100779.16;10067841;29;20173;-77
2022/08/28 12:59:36;;;;;;;4.22;1.70;;;;;;;28.11;30.37;100781.59;10070239;29;20372;-76
2022/08/28 13:04:45;;;;;;;6.15;2.30;;;;;;;29.01;29.56;100784.38;10079034;29;20174;-77
2022/08/28 13:09:51;;;;;;;8.07;2.65;;;;;;;28.60;29.68;100783.28;10063664;29;20143;-77
2022/08/28 13:14:54;;;;;;;5.35;1.90;;;;;;;27.09;30.18;100770.91;10080686;29;20191;-76
2022/08/28 13:20:03;;;;;;;6.15;2.40;;;;;;;29.12;29.58;100763.38;10058325;29;20065;-77
2022/08/28 13:25:08;;;;;;;4.65;1.95;;;;;;;29.48;28.58;100759.53;10083069;29;20092;-77
2022/08/28 13:30:23;;;;;;;4.85;2.10;;;;;;;28.71;28.88;100765.06;10065398;29;20041;-77
2022/08/28 13:35:39;;;;;;;5.75;2.03;;;;;;;25.24;33.14;100770.56;10072059;29;20053;-77
2022/08/28 13:40:47;;;;;;;5.03;1.60;;;;;;;26.10;32.18;100758.53;10075807;29;20371;-77
2022/08/28 13:46:06;;;;;;;7.93;1.88;;;;;;;26.68;31.99;100759.28;10072287;29;20586;-77
2022/08/28 13:51:13;;;;;;;3.20;2.15;;;;;;;27.50;30.54;100759.31;10079180;29;20136;-76
2022/08/28 13:56:22;;;;;;;4.47;1.88;;;;;;;26.86;30.67;100764.09;10074491;29;20059;-77
2022/08/28 14:03:34;;;;;;;3.58;1.60;;;;;;;27.28;30.91;100745.06;10068632;29;20060;-77
2022/08/28 14:06:50;;;;;;;3.65;2.15;;;;;;;26.39;31.10;100744.22;10073979;29;20188;-77
2022/08/28 14:11:53;;;;;;;3.35;1.70;;;;;;;28.07;29.88;100731.53;10072593;29;20184;-77
2022/08/28 14:16:56;;;;;;;8.60;1.70;;;;;;;28.40;30.21;100735.75;10072461;29;20171;-76
2022/08/28 14:22:00;;;;;;;3.65;1.60;;;;;;;28.60;29.12;100744.59;10066698;29;20051;-77
2022/08/28 14:27:03;;;;;;;3.92;1.83;;;;;;;28.76;28.44;100728.44;10084315;29;20112;-76
2022/08/28 14:32:06;;;;;;;5.32;1.75;;;;;;;29.16;27.99;100731.41;10085627;29;20275;-77
2022/08/28 14:37:11;;;;;;;3.17;1.65;;;;;;;28.46;28.69;100734.81;10067346;29;20068;-76
2022/08/28 14:42:14;;;;;;;4.70;1.90;;;;;;;26.69;30.83;100727.94;10066116;29;20057;-76
2022/08/28 14:47:17;;;;;;;7.05;1.75;;;;;;;26.77;29.76;100725.94;10069066;29;20121;-77
2022/08/28 14:52:21;;;;;;;3.65;1.35;;;;;;;27.93;29.67;100707.91;10079455;29;20051;-77
2022/08/28 14:57:24;;;;;;;3.13;1.60;;;;;;;27.70;30.19;100719.63;10076649;29;20511;-78
2022/08/28 15:02:27;;;;;;;4.25;1.73;;;;;;;27.27;30.58;100715.81;10068458;29;20143;-77
2022/08/28 15:07:31;;;;;;;4.68;1.98;;;;;;;26.63;30.60;100725.22;10070232;29;20056;-77
2022/08/28 15:12:34;;;;;;;5.00;1.55;;;;;;;25.39;32.76;100719.75;10079001;29;20143;-77
2022/08/28 15:17:39;;;;;;;4.70;1.77;;;;;;;25.97;32.41;100730.00;10069140;29;21170;-77
2022/08/28 15:22:44;;;;;;;5.50;2.00;;;;;;;25.83;32.67;100736.59;10056124;29;20110;-77
2022/08/28 15:27:46;;;;;;;4.72;1.55;;;;;;;26.53;31.79;100739.50;10061133;29;20176;-77
2022/08/28 15:32:49;;;;;;;4.43;1.80;;;;;;;26.42;32.00;100724.50;10069103;29;20644;-77
2022/08/28 15:37:54;;;;;;;7.80;1.73;;;;;;;25.76;31.86;100730.31;10066957;29;20145;-77
2022/08/28 15:42:56;;;;;;;4.28;1.50;;;;;;;25.01;33.64;100727.78;10078129;29;20199;-76
2022/08/28 15:47:59;;;;;;;2.72;1.58;;;;;;;24.74;33.41;100735.22;10074918;29;20509;-77
2022/08/28 15:53:04;;;;;;;3.67;1.77;;;;;;;25.24;32.88;100724.66;10066766;29;20063;-76
2022/08/28 15:58:08;;;;;;;2.97;1.60;;;;;;;25.00;32.78;100736.28;10077395;29;20182;-76
2022/08/28 16:03:15;;;;;;;4.35;1.90;;;;;;;25.68;32.02;100733.28;10082282;29;20075;-76
2022/08/28 16:08:20;;;;;;;3.22;1.60;;;;;;;25.70;31.84;100728.38;10068177;29;20060;-77
2022/08/28 16:13:23;;;;;;;3.63;1.67;;;;;;;24.43;32.59;100733.84;10083461;29;20048;-76
2022/08/28 16:18:26;;;;;;;6.30;3.20;;;;;;;25.29;33.04;100733.13;10072479;29;20526;-77
2022/08/28 16:23:31;;;;;;;3.38;1.58;;;;;;;25.23;32.16;100727.63;10066063;29;20570;-76
2022/08/28 16:28:35;;;;;;;3.58;1.90;;;;;;;24.95;32.69;100737.72;10083413;29;20767;-77
2022/08/28 16:33:40;;;;;;;4.00;1.42;;;;;;;25.27;32.30;100732.47;10070270;29;20418;-77
2022/08/28 16:38:47;;;;;;;5.55;1.85;;;;;;;25.00;32.27;100736.28;10073681;29;20109;-76
2022/08/28 16:43:59;;;;;;;3.85;1.40;;;;;;;24.68;32.73;100744.25;10074316;29;20053;-76
2022/08/28 16:49:01;;;;;;;7.15;1.70;;;;;;;23.95;33.56;100730.31;10069924;29;20608;-76
2022/08/28 16:54:06;;;;;;;4.30;1.88;;;;;;;23.95;34.24;100731.16;10079882;29;21523;-76
2022/08/28 16:59:09;;;;;;;5.25;1.80;;;;;;;24.06;34.71;100736.06;10068181;29;20558;-78
2022/08/28 17:04:12;;;;;;;3.17;1.85;;;;;;;23.48;34.46;100735.50;10078837;29;21931;-78
2022/08/28 17:09:17;;;;;;;4.85;1.85;;;;;;;23.77;34.47;100731.69;10079173;29;20073;-78
2022/08/28 17:14:23;;;;;;;5.97;1.77;;;;;;;23.47;34.84;100724.72;10080988;29;20135;-79
2022/08/28 17:19:27;;;;;;;1.98;1.48;;;;;;;23.18;35.62;100724.75;10098509;29;20056;-79
2022/08/28 17:24:31;;;;;;;5.00;1.77;;;;;;;22.47;36.22;100729.34;10079365;29;20086;-78
2022/08/28 17:29:35;;;;;;;5.22;2.17;;;;;;;22.27;36.88;100731.81;10087679;29;20101;-78
2022/08/28 17:34:38;;;;;;;6.90;1.80;;;;;;;22.20;37.56;100737.22;10091485;29;20112;-79
2022/08/28 17:39:43;;;;;;;4.07;1.80;;;;;;;21.41;37.87;100742.44;10104605;29;20063;-79
2022/08/28 17:44:46;;;;;;;4.03;1.90;;;;;;;21.51;38.26;100743.00;10077605;29;20149;-79
2022/08/28 17:49:48;;;;;;;4.75;2.35;;;;;;;21.39;39.13;100748.09;10077863;29;20092;-78
2022/08/28 17:54:52;;;;;;;6.78;2.42;;;;;;;21.13;38.50;100764.06;10084358;29;20132;-79
2022/08/28 17:59:56;;;;;;;4.93;2.05;;;;;;;20.82;39.61;100759.50;10087934;29;20101;-78
2022/08/28 18:04:59;;;;;;;6.07;2.30;;;;;;;20.44;40.17;100759.44;10080991;29;20422;-79
2022/08/28 18:10:06;;;;;;;5.47;2.53;;;;;;;20.10;40.99;100771.53;10095490;29;20049;-79
2022/08/28 18:15:12;;;;;;;4.72;2.50;;;;;;;19.90;40.82;100762.91;10076328;29;20060;-78
2022/08/28 18:20:15;;;;;;;5.55;2.15;;;;;;;19.70;41.06;100764.34;10076148;29;20057;-79
2022/08/28 18:30:41;;;;;;;6.85;2.53;;;;;;;19.30;42.19;100784.31;10079509;29;21396;-78
2022/08/28 18:35:44;;;;;;;5.22;2.50;;;;;;;19.15;42.55;100782.28;10083199;29;20053;-78
2022/08/28 18:40:52;;;;;;;6.20;2.58;;;;;;;18.98;42.91;100794.22;10070216;29;20067;-78
2022/08/28 18:45:55;;;;;;;5.57;3.13;;;;;;;18.77;43.20;100797.38;10074753;29;20127;-78
2022/08/28 18:50:58;;;;;;;7.15;2.63;;;;;;;18.64;43.39;100803.31;10073416;29;20147;-78
2022/08/28 18:56:03;;;;;;;4.72;2.83;;;;;;;18.46;44.02;100814.31;10078353;29;20064;-77
2022/08/28 19:01:08;;;;;;;8.98;2.83;;;;;;;18.38;44.61;100821.63;10090867;29;20452;-77
2022/08/28 19:06:12;;;;;;;9.93;3.67;;;;;;;18.38;44.58;100827.91;10074145;29;20084;-77
2022/08/28 19:11:16;;;;;;;8.45;3.22;;;;;;;18.22;45.51;100827.84;10078606;29;20124;-76
2022/08/28 19:16:20;;;;;;;6.38;3.13;;;;;;;18.06;45.63;100825.88;10079130;29;20041;-77
2022/08/28 19:21:22;;;;;;;7.50;3.75;;;;;;;17.98;45.88;100826.69;10069802;29;20049;-76
2022/08/28 19:26:27;;;;;;;8.23;3.65;;;;;;;17.91;46.75;100833.78;10082424;29;20574;-77
2022/08/28 19:31:30;;;;;;;8.50;3.70;;;;;;;17.79;46.78;100835.91;10074095;29;20181;-76
2022/08/28 19:36:35;;;;;;;8.00;3.67;;;;;;;17.69;46.83;100849.59;10080088;29;20065;-76
2022/08/28 19:41:42;;;;;;;7.43;3.28;;;;;;;17.59;47.43;100853.44;10072870;29;20200;-76
2022/08/28 19:46:44;;;;;;;7.30;3.22;;;;;;;17.38;48.52;100860.06;10068239;29;20088;-75
2022/08/28 19:51:48;;;;;;;9.95;3.53;;;;;;;17.20;48.83;100873.66;10063114;29;20139;-77
2022/08/28 19:56:52;;;;;;;5.70;2.85;;;;;;;17.17;49.30;100876.69;10062238;29;20057;-75
2022/08/28 20:01:55;;;;;;;8.80;3.33;;;;;;;17.05;49.68;100877.88;10063529;29;20184;-76
2022/08/28 20:06:59;;;;;;;8.65;3.05;;;;;;;16.98;50.00;100885.81;10068166;29;20060;-76
2022/08/28 20:12:04;;;;;;;6.57;3.13;;;;;;;16.84;50.50;100882.75;10078429;29;20105;-76
2022/08/28 20:17:06;;;;;;;7.07;3.00;;;;;;;16.80;50.54;100893.06;10068665;29;20148;-76
2022/08/28 20:22:09;;;;;;;6.32;3.20;;;;;;;16.77;50.35;100899.66;10055946;29;20522;-76
2022/08/28 20:27:13;;;;;;;6.82;2.85;;;;;;;16.71;50.87;100902.97;10064121;29;20100;-76
2022/08/28 20:32:16;;;;;;;5.78;2.75;;;;;;;16.55;51.32;100898.22;10047633;29;20136;-76
2022/08/28 20:37:19;;;;;;;5.15;2.42;;;;;;;16.52;51.91;100901.22;10062756;29;20081;-76
2022/08/28 20:42:24;;;;;;;5.03;2.75;;;;;;;16.49;51.68;100901.53;10061294;29;20057;-76
2022/08/28 20:47:33;;;;;;;9.27;2.70;;;;;;;16.35;51.78;100921.00;10071956;29;20049;-76
2022/08/28 20:52:36;;;;;;;4.57;2.60;;;;;;;16.27;52.31;100921.75;10068877;29;20139;-76
2022/08/28 20:57:41;;;;;;;6.50;2.60;;;;;;;16.30;52.44;100921.44;10075880;29;20245;-76
2022/08/28 21:02:44;;;;;;;7.30;2.72;;;;;;;16.27;52.35;100924.44;10063714;29;20132;-76
2022/08/28 21:07:47;;;;;;;5.65;2.80;;;;;;;16.29;52.80;100910.72;10065113;29;20068;-76
2022/08/28 21:12:51;;;;;;;10.35;3.08;;;;;;;16.15;53.35;100918.34;10069178;29;20068;-76
2022/08/28 21:17:54;;;;;;;7.28;2.70;;;;;;;16.09;53.27;100920.78;10061522;29;20089;-76
2022/08/28 21:22:57;;;;;;;5.28;2.30;;;;;;;15.87;53.55;100916.53;10061662;29;20152;-75
2022/08/28 21:28:02;;;;;;;7.85;2.83;;;;;;;15.53;54.57;100924.31;10072910;29;20185;-77
2022/08/28 21:33:06;;;;;;;6.25;2.60;;;;;;;15.22;55.03;100929.81;10081984;29;20203;-76
2022/08/28 21:38:08;;;;;;;7.22;2.70;;;;;;;15.14;55.93;100938.66;10076825;29;20086;-76
2022/08/28 21:43:13;;;;;;;5.65;2.58;;;;;;;14.92;56.72;100942.47;10080569;29;20084;-76
2022/08/28 21:48:16;;;;;;;5.93;2.63;;;;;;;15.05;56.60;100940.31;10070024;29;20056;-75
2022/08/28 21:53:18;;;;;;;7.30;2.60;;;;;;;14.99;56.84;100942.75;10061614;29;20160;-76
2022/08/28 21:58:23;;;;;;;6.35;3.03;;;;;;;14.66;58.21;100939.41;10073456;29;20132;-75
2022/08/28 22:03:27;;;;;;;7.97;3.15;;;;;;;14.61;58.39;100936.25;10060956;29;20144;-75
2022/08/28 22:08:30;;;;;;;7.25;3.58;;;;;;;14.26;59.59;100928.53;10075870;29;20143;-75
2022/08/28 22:13:34;;;;;;;8.90;2.55;;;;;;;14.32;59.37;100944.22;10079960;29;20049;-77
2022/08/28 22:18:37;;;;;;;5.68;2.67;;;;;;;13.91;60.44;100940.59;10125719;29;20056;-75
2022/08/28 22:23:40;;;;;;;11.52;3.08;;;;;;;14.00;60.25;100934.38;10105851;29;20407;-76
2022/08/28 22:28:45;;;;;;;5.75;2.33;;;;;;;14.05;59.72;100931.28;10121122;29;20052;-76
2022/08/28 22:33:48;;;;;;;8.32;2.65;;;;;;;13.57;61.29;100943.47;10107165;29;20053;-75
2022/08/28 22:38:51;;;;;;;8.88;2.45;;;;;;;13.77;60.71;100940.91;10108085;29;20041;-75
2022/08/28 22:43:57;;;;;;;8.05;3.00;;;;;;;13.82;60.59;100933.25;10116330;29;20052;-77
2022/08/28 22:49:00;;;;;;;6.43;2.65;;;;;;;14.05;60.01;100932.13;10116176;29;20191;-77
2022/08/28 22:54:03;;;;;;;7.93;2.60;;;;;;;14.03;60.08;100920.59;10111210;29;20456;-77
2022/08/28 22:59:07;;;;;;;6.60;3.17;;;;;;;13.71;60.95;100935.06;10120532;29;20061;-77
2022/08/28 23:04:11;;;;;;;5.30;2.60;;;;;;;13.76;60.91;100931.09;10123698;29;20521;-77
2022/08/28 23:09:14;;;;;;;12.20;3.45;;;;;;;13.48;61.60;100934.31;10100912;29;20442;-77
2022/08/28 23:14:18;;;;;;;12.05;2.90;;;;;;;13.38;62.07;100932.50;10124835;29;20060;-77
2022/08/28 23:19:21;;;;;;;8.90;3.20;;;;;;;13.30;62.57;100935.81;10103983;29;20041;-77
2022/08/28 23:24:23;;;;;;;6.07;2.80;;;;;;;13.01;63.58;100944.50;10122554;29;20045;-77
2022/08/28 23:29:28;;;;;;;7.07;3.00;;;;;;;12.94;64.03;100942.44;10106846;29;20055;-77
2022/08/28 23:34:30;;;;;;;5.57;2.80;;;;;;;13.19;63.23;100943.94;10117417;29;20053;-77
2022/08/28 23:39:33;;;;;;;7.75;2.67;;;;;;;12.89;64.58;100939.25;10113137;29;20387;-77
2022/08/28 23:44:37;;;;;;;8.80;3.05;;;;;;;13.08;64.00;100933.19;10117251;29;20057;-76